createdAt,value
2023-05-17T00:01:51.305Z,70.45
2023-05-17T00:04:19.369Z,69.68
2023-05-17T00:06:47.303Z,69.58
2023-05-17T00:09:15.272Z,68.82
2023-05-17T00:11:43.205Z,69.06
2023-05-17T00:14:11.711Z,68.59
2023-05-17T00:16:39.851Z,69.55
2023-05-17T00:19:09.752Z,70.13
2023-05-17T00:21:38.123Z,69.24
2023-05-17T00:24:06.851Z,69.16
2023-05-17T00:26:34.849Z,69.24
2023-05-17T00:29:03.595Z,69.69
2023-05-17T00:31:31.520Z,69.28
2023-05-17T00:33:59.449Z,68.92
2023-05-17T00:36:28.803Z,68.54
2023-05-17T00:38:56.721Z,69.08
2023-05-17T00:41:24.869Z,69.18
2023-05-17T00:43:53.043Z,68.06
2023-05-17T00:46:20.989Z,68.54
2023-05-17T00:48:48.980Z,69.01
2023-05-17T00:51:17.860Z,68.11
2023-05-17T00:53:47.336Z,69.04
2023-05-17T00:56:15.315Z,68.58
2023-05-17T00:58:43.485Z,68.55
2023-05-17T01:01:11.435Z,67.88
2023-05-17T01:03:39.683Z,68.73
2023-05-17T01:06:07.962Z,69.16
2023-05-17T01:08:36.103Z,69.96
2023-05-17T01:11:11.734Z,68.82
2023-05-17T01:13:43.787Z,68.77
2023-05-17T01:16:17.619Z,68.47
2023-05-17T01:18:49.648Z,68.87
2023-05-17T01:21:32.161Z,68.55
2023-05-17T01:24:07.811Z,67.59
2023-05-17T01:26:40.630Z,67.55
2023-05-17T01:29:09.945Z,67.19
2023-05-17T01:31:38.601Z,67.61
2023-05-17T01:34:08.644Z,67.89
2023-05-17T01:36:37.348Z,67.08
2023-05-17T01:39:05.313Z,67.08
2023-05-17T01:41:40.029Z,67.31
2023-05-17T01:44:14.423Z,68.16
2023-05-17T01:46:43.564Z,68.47
2023-05-17T01:49:19.511Z,69.00
2023-05-17T01:51:50.375Z,67.77
2023-05-17T01:54:23.122Z,68.44
2023-05-17T01:56:57.691Z,70.11
2023-05-17T01:59:26.840Z,69.29
2023-05-17T02:01:56.619Z,68.28
2023-05-17T02:04:24.735Z,69.06
2023-05-17T02:06:52.705Z,68.98
2023-05-17T02:09:20.799Z,69.99
2023-05-17T02:11:48.717Z,69.03
2023-05-17T02:14:18.036Z,68.84
2023-05-17T02:16:46.008Z,67.51
2023-05-17T02:19:15.204Z,69.28
2023-05-17T02:21:43.168Z,70.27
2023-05-17T02:24:11.140Z,69.03
2023-05-17T02:26:42.826Z,69.87
2023-05-17T02:29:11.168Z,69.18
2023-05-17T02:31:40.492Z,68.77
2023-05-17T02:34:08.550Z,69.21
2023-05-17T02:36:36.468Z,68.68
2023-05-17T02:39:04.490Z,68.94
2023-05-17T02:41:32.429Z,69.17
2023-05-17T02:44:00.540Z,68.97
2023-05-17T02:46:28.515Z,68.15
2023-05-17T02:48:57.807Z,68.66
2023-05-17T02:51:25.738Z,68.96
2023-05-17T02:53:53.681Z,68.25
2023-05-17T02:56:21.753Z,68.42
2023-05-17T02:58:49.677Z,68.04
2023-05-17T03:01:17.644Z,67.46
2023-05-17T03:03:45.750Z,67.51
2023-05-17T03:06:16.970Z,67.78
2023-05-17T03:08:44.894Z,67.93
2023-05-17T03:11:12.832Z,67.54
2023-05-17T03:13:40.756Z,67.39
2023-05-17T03:16:09.653Z,67.68
2023-05-17T03:18:37.767Z,67.88
2023-05-17T03:21:05.844Z,67.96
2023-05-17T03:23:35.177Z,66.65
2023-05-17T03:26:03.208Z,66.74
2023-05-17T03:28:31.115Z,66.74
2023-05-17T03:30:59.132Z,66.91
2023-05-17T03:33:27.191Z,66.38
2023-05-17T03:35:55.155Z,65.74
2023-05-17T03:38:23.303Z,65.60
2023-05-17T03:40:54.377Z,64.98
2023-05-17T03:43:22.302Z,64.52
2023-05-17T03:45:50.212Z,65.17
2023-05-17T03:48:18.231Z,63.54
2023-05-17T03:50:46.269Z,65.02
2023-05-17T03:53:14.202Z,63.26
2023-05-17T03:55:42.173Z,63.25
2023-05-17T03:58:11.507Z,63.74
2023-05-17T04:00:39.463Z,63.50
2023-05-17T04:03:07.834Z,62.91
2023-05-17T04:05:35.943Z,63.75
2023-05-17T04:08:03.917Z,63.41
2023-05-17T04:10:32.010Z,63.44
2023-05-17T04:12:59.914Z,62.93
2023-05-17T04:15:29.397Z,63.65
2023-05-17T04:17:57.575Z,63.45
2023-05-17T04:20:25.578Z,63.25
2023-05-17T04:22:53.546Z,63.47
2023-05-17T04:25:22.587Z,63.06
2023-05-17T04:27:50.564Z,62.95
2023-05-17T04:30:18.729Z,62.61
2023-05-17T04:32:48.200Z,63.19
2023-05-17T04:35:16.264Z,62.74
2023-05-17T04:37:44.593Z,62.61
2023-05-17T04:40:14.643Z,63.38
2023-05-17T04:42:42.556Z,63.48
2023-05-17T04:45:15.398Z,62.95
2023-05-17T04:47:43.825Z,62.24
2023-05-17T04:50:13.621Z,61.69
2023-05-17T04:52:41.564Z,62.19
2023-05-17T04:55:10.423Z,61.48
2023-05-17T04:57:38.398Z,62.37
2023-05-17T05:00:09.986Z,62.16
2023-05-17T05:02:38.108Z,60.35
2023-05-17T05:05:07.142Z,60.40
2023-05-17T05:07:36.575Z,61.86
2023-05-17T05:10:04.870Z,60.11
2023-05-17T05:12:32.796Z,59.82
2023-05-17T05:15:01.279Z,59.37
2023-05-17T05:17:30.337Z,59.80
2023-05-17T05:19:58.367Z,61.08
2023-05-17T05:22:26.425Z,58.87
2023-05-17T05:24:56.460Z,58.84
2023-05-17T05:27:24.391Z,59.49
2023-05-17T05:29:52.471Z,58.25
2023-05-17T05:32:20.401Z,60.86
2023-05-17T05:34:48.401Z,58.22
2023-05-17T05:37:18.595Z,61.01
2023-05-17T05:39:46.791Z,60.12
2023-05-17T05:42:16.154Z,59.04
2023-05-17T05:44:44.108Z,60.35
2023-05-17T05:47:12.051Z,61.89
2023-05-17T05:49:40.048Z,60.37
2023-05-17T05:52:08.287Z,59.75
2023-05-17T05:54:36.230Z,59.36
2023-05-17T05:57:04.427Z,59.69
2023-05-17T05:59:33.733Z,59.10
2023-05-17T06:02:01.675Z,58.58
2023-05-17T06:04:43.669Z,60.96
2023-05-17T06:07:13.653Z,59.77
2023-05-17T06:09:41.616Z,61.02
2023-05-17T06:12:09.656Z,60.37
2023-05-17T06:14:39.020Z,61.43
2023-05-17T06:17:07.069Z,60.14
2023-05-17T06:19:35.231Z,61.09
2023-05-17T06:22:03.299Z,60.65
2023-05-17T06:24:31.222Z,61.13
2023-05-17T06:26:59.300Z,60.35
2023-05-17T06:29:27.228Z,59.15
2023-05-17T06:31:58.139Z,59.03
2023-05-17T06:34:26.057Z,60.16
2023-05-17T06:36:54.008Z,58.50
2023-05-17T06:39:21.924Z,57.48
2023-05-17T06:41:49.828Z,57.39
2023-05-17T06:44:17.769Z,58.50
2023-05-17T06:46:45.773Z,58.99
2023-05-17T06:49:15.132Z,55.83
2023-05-17T06:51:43.100Z,55.47
2023-05-17T06:54:11.244Z,55.29
2023-05-17T06:56:40.184Z,56.18
2023-05-17T06:59:08.141Z,58.71
2023-05-17T07:01:36.113Z,58.05
2023-05-17T07:04:04.269Z,57.29
2023-05-17T07:06:33.655Z,57.48
2023-05-17T07:09:01.774Z,57.27
2023-05-17T07:11:29.737Z,55.27
2023-05-17T07:13:57.748Z,55.03
2023-05-17T07:16:25.679Z,55.52
2023-05-17T07:18:54.109Z,53.79
2023-05-17T07:21:23.782Z,53.07
2023-05-17T07:23:53.145Z,54.67
2023-05-17T07:26:21.677Z,53.83
2023-05-17T07:28:49.977Z,56.14
2023-05-17T07:31:17.945Z,55.64
2023-05-17T07:33:46.192Z,55.56
2023-05-17T07:36:14.298Z,56.82
2023-05-17T07:38:42.375Z,55.18
2023-05-17T07:41:13.937Z,55.77
2023-05-17T07:43:41.851Z,55.69
2023-05-17T07:46:09.796Z,57.51
2023-05-17T07:48:37.851Z,56.17
2023-05-17T07:51:06.102Z,55.79
2023-05-17T07:53:34.123Z,56.51
2023-05-17T07:56:02.072Z,55.79
2023-05-17T07:58:31.414Z,56.67
2023-05-17T08:01:00.744Z,56.19
2023-05-17T08:03:29.586Z,56.59
2023-05-17T08:05:57.586Z,57.96
2023-05-17T08:08:25.645Z,56.69
2023-05-17T08:10:53.595Z,58.83
2023-05-17T08:13:21.515Z,59.28
2023-05-17T08:15:55.972Z,59.68
2023-05-17T08:18:29.691Z,58.85
2023-05-17T08:20:57.745Z,57.93
2023-05-17T08:23:25.944Z,57.97
2023-05-17T08:25:53.889Z,59.63
2023-05-17T08:28:22.280Z,60.53
2023-05-17T08:30:51.610Z,59.71
2023-05-17T08:33:20.854Z,57.75
2023-05-17T08:35:49.091Z,56.96
2023-05-17T08:38:19.222Z,55.57
2023-05-17T08:40:54.409Z,54.71
2023-05-17T08:43:26.833Z,54.97
2023-05-17T08:45:58.212Z,55.50
2023-05-17T08:48:27.705Z,54.81
2023-05-17T08:50:55.913Z,54.96
2023-05-17T08:53:24.171Z,54.27
2023-05-17T08:55:52.688Z,53.49
2023-05-17T08:58:22.678Z,56.78
2023-05-17T09:00:51.974Z,57.25
2023-05-17T09:03:22.581Z,56.86
2023-05-17T09:05:52.745Z,55.76
2023-05-17T09:08:21.378Z,56.79
2023-05-17T09:10:49.470Z,56.08
2023-05-17T09:13:17.603Z,58.23
2023-05-17T09:15:46.365Z,58.01
2023-05-17T09:18:16.375Z,58.14
2023-05-17T09:20:51.613Z,59.63
2023-05-17T09:23:22.427Z,58.05
2023-05-17T09:25:51.004Z,56.42
2023-05-17T09:28:20.776Z,55.68
2023-05-17T09:30:50.122Z,52.99
2023-05-17T09:33:22.098Z,53.26
2023-05-17T09:35:51.552Z,54.33
2023-05-17T09:38:19.565Z,52.59
2023-05-17T09:40:50.292Z,52.68
2023-05-17T09:43:18.560Z,55.46
2023-05-17T09:45:46.768Z,56.54
2023-05-17T09:48:15.709Z,56.69
2023-05-17T09:50:47.428Z,54.14
2023-05-17T09:53:30.273Z,54.01
2023-05-17T09:55:59.858Z,52.82
2023-05-17T09:58:28.963Z,53.05
2023-05-17T10:01:00.452Z,55.10
2023-05-17T10:03:32.120Z,52.13
2023-05-17T10:06:02.454Z,53.99
2023-05-17T10:08:33.493Z,52.55
2023-05-17T10:11:05.262Z,50.71
2023-05-17T10:13:42.427Z,54.02
2023-05-17T10:16:10.940Z,50.96
2023-05-17T10:18:41.735Z,49.51
2023-05-17T10:21:10.808Z,51.30
2023-05-17T10:23:40.439Z,47.80
2023-05-17T10:26:08.494Z,49.89
2023-05-17T10:28:37.938Z,51.15
2023-05-17T10:31:06.503Z,45.95
2023-05-17T10:33:34.526Z,48.52
2023-05-17T10:36:04.068Z,46.31
2023-05-17T10:38:41.889Z,49.86
2023-05-17T10:41:13.015Z,47.99
2023-05-17T10:43:42.268Z,49.59
2023-05-17T10:46:15.787Z,46.95
2023-05-17T10:48:55.927Z,51.42
2023-05-17T10:51:26.046Z,50.94
2023-05-17T10:54:11.657Z,46.71
2023-05-17T10:56:48.526Z,46.17
2023-05-17T10:59:17.932Z,47.30
2023-05-17T11:02:02.975Z,48.34
2023-05-17T11:04:34.575Z,52.41
2023-05-17T11:07:24.775Z,48.81
2023-05-17T11:09:56.170Z,50.53
2023-05-17T11:12:38.535Z,52.93
2023-05-17T11:15:09.437Z,51.05
2023-05-17T11:17:49.818Z,51.51
2023-05-17T11:20:37.168Z,47.14
2023-05-17T11:23:06.953Z,47.41
2023-05-17T11:25:36.264Z,46.63
2023-05-17T11:28:09.981Z,49.77
2023-05-17T11:30:43.533Z,49.32
2023-05-17T11:33:24.958Z,48.29
2023-05-17T11:36:05.494Z,48.83
2023-05-17T11:38:34.450Z,48.70
2023-05-17T11:43:51.168Z,48.11
2023-05-17T11:46:23.946Z,49.74
2023-05-17T11:48:52.464Z,49.56
2023-05-17T11:51:24.438Z,47.80
2023-05-17T11:53:55.579Z,45.09
2023-05-17T11:56:35.456Z,46.30
2023-05-17T11:59:11.933Z,43.66
2023-05-17T12:01:47.528Z,42.91
2023-05-17T12:04:16.366Z,42.92
2023-05-17T12:06:45.523Z,43.74
2023-05-17T12:09:17.734Z,48.14
2023-05-17T12:11:46.313Z,46.86
2023-05-17T12:14:18.508Z,44.37
2023-05-17T12:16:50.218Z,47.14
2023-05-17T12:19:22.245Z,47.76
2023-05-17T12:21:50.737Z,46.76
2023-05-17T12:24:19.250Z,49.55
2023-05-17T12:26:48.063Z,47.24
2023-05-17T12:29:22.942Z,49.18
2023-05-17T12:31:54.079Z,46.10
2023-05-17T12:34:22.465Z,46.67
2023-05-17T12:36:50.594Z,47.88
2023-05-17T12:39:23.693Z,44.50
2023-05-17T12:41:52.468Z,45.64
2023-05-17T12:44:22.227Z,47.92
2023-05-17T12:46:53.965Z,49.48
2023-05-17T12:49:23.239Z,47.25
2023-05-17T12:51:51.311Z,47.62
2023-05-17T12:54:28.066Z,46.75
2023-05-17T12:56:56.453Z,47.68
2023-05-17T12:59:28.787Z,45.42
2023-05-17T13:01:57.610Z,46.96
2023-05-17T13:04:31.862Z,47.04
2023-05-17T13:07:01.081Z,44.24
2023-05-17T13:09:31.221Z,44.57
2023-05-17T13:12:01.020Z,47.85
2023-05-17T13:14:38.178Z,47.63
2023-05-17T13:17:07.057Z,47.58
2023-05-17T13:19:36.102Z,46.10
2023-05-17T13:22:04.378Z,45.49
2023-05-17T13:24:32.771Z,44.51
2023-05-17T13:27:00.746Z,47.25
2023-05-17T13:29:38.717Z,48.12
2023-05-17T13:32:11.582Z,45.94
2023-05-17T13:34:40.112Z,47.81
2023-05-17T13:37:11.517Z,46.81
2023-05-17T13:39:41.031Z,45.42
2023-05-17T13:42:09.781Z,45.67
2023-05-17T13:44:38.401Z,47.71
2023-05-17T13:47:06.924Z,47.23
2023-05-17T13:49:36.300Z,47.90
2023-05-17T13:52:08.503Z,48.36
2023-05-17T13:54:36.623Z,45.75
2023-05-17T13:57:05.159Z,46.24
2023-05-17T13:59:33.212Z,47.02
2023-05-17T14:02:01.337Z,49.01
2023-05-17T14:04:29.303Z,50.05
2023-05-17T14:06:58.623Z,49.05
2023-05-17T14:09:26.607Z,46.25
2023-05-17T14:11:54.713Z,47.36
2023-05-17T14:14:26.142Z,49.44
2023-05-17T14:16:54.095Z,47.89
2023-05-17T14:19:22.126Z,46.85
2023-05-17T14:21:51.116Z,48.59
2023-05-17T14:24:20.438Z,45.35
2023-05-17T14:26:48.388Z,44.99
2023-05-17T14:29:16.682Z,45.04
2023-05-17T14:31:44.663Z,47.14
2023-05-17T14:34:12.692Z,47.00
2023-05-17T14:36:40.660Z,49.08
2023-05-17T14:39:08.622Z,49.04
2023-05-17T14:41:39.327Z,46.70
2023-05-17T14:44:07.327Z,47.86
2023-05-17T14:46:35.646Z,46.62
2023-05-17T14:49:03.606Z,45.55
2023-05-17T14:51:31.814Z,45.43
2023-05-17T14:53:59.875Z,44.83
2023-05-17T14:56:27.863Z,46.23
2023-05-17T14:58:57.690Z,44.58
2023-05-17T15:01:25.758Z,43.47
2023-05-17T15:03:53.790Z,46.47
2023-05-17T15:06:24.949Z,43.99
2023-05-17T15:08:53.027Z,45.16
2023-05-17T15:11:21.978Z,46.08
2023-05-17T15:13:49.969Z,45.77
2023-05-17T15:16:19.379Z,45.41
2023-05-17T15:18:47.710Z,43.93
2023-05-17T15:21:17.655Z,45.33
2023-05-17T15:23:46.091Z,43.11
2023-05-17T15:26:14.045Z,45.89
2023-05-17T15:28:42.097Z,47.04
2023-05-17T15:31:10.844Z,45.67
2023-05-17T15:33:42.567Z,45.91
2023-05-17T15:36:11.291Z,46.74
2023-05-17T15:38:40.913Z,48.12
2023-05-17T15:41:13.051Z,44.83
2023-05-17T15:43:41.563Z,44.53
2023-05-17T15:46:09.832Z,46.99
2023-05-17T15:48:39.292Z,47.04
2023-05-17T15:51:07.634Z,45.88
2023-05-17T15:53:35.679Z,47.88
2023-05-17T15:56:03.631Z,48.79
2023-05-17T15:58:33.420Z,46.82
2023-05-17T16:01:04.317Z,47.65
2023-05-17T16:03:32.582Z,48.35
2023-05-17T16:06:02.950Z,47.90
2023-05-17T16:08:31.005Z,45.98
2023-05-17T16:11:00.806Z,46.43
2023-05-17T16:13:30.123Z,47.19
2023-05-17T16:15:58.202Z,47.47
2023-05-17T16:18:26.234Z,48.76
2023-05-17T16:20:59.372Z,48.07
2023-05-17T16:23:28.965Z,47.69
2023-05-17T16:25:57.186Z,47.62
2023-05-17T16:28:25.149Z,47.73
2023-05-17T16:30:53.470Z,48.18
2023-05-17T16:33:21.626Z,46.69
2023-05-17T16:35:49.912Z,48.14
2023-05-17T16:38:18.177Z,47.68
2023-05-17T16:40:47.552Z,48.32
2023-05-17T16:43:16.257Z,47.73
2023-05-17T16:45:45.422Z,49.10
2023-05-17T16:48:14.774Z,46.83
2023-05-17T16:50:43.262Z,47.59
2023-05-17T16:53:11.260Z,47.40
2023-05-17T16:55:39.195Z,48.79
2023-05-17T16:58:08.569Z,49.59
2023-05-17T17:00:36.628Z,49.35
2023-05-17T17:03:07.272Z,49.87
2023-05-17T17:05:37.265Z,49.36
2023-05-17T17:08:05.230Z,48.58
2023-05-17T17:10:33.210Z,49.87
2023-05-17T17:13:01.669Z,49.76
2023-05-17T17:15:31.005Z,49.63
2023-05-17T17:17:58.964Z,50.00
2023-05-17T17:20:27.233Z,52.38
2023-05-17T17:22:55.749Z,51.14
2023-05-17T17:25:24.832Z,49.19
2023-05-17T17:27:53.309Z,49.21
2023-05-17T17:30:21.375Z,50.20
2023-05-17T17:32:50.831Z,49.50
2023-05-17T17:35:18.883Z,48.92
2023-05-17T17:37:46.859Z,49.26
2023-05-17T17:40:14.893Z,50.89
2023-05-17T17:42:42.846Z,51.25
2023-05-17T17:45:11.652Z,51.66
2023-05-17T17:47:39.634Z,51.49
2023-05-17T17:50:10.215Z,50.66
2023-05-17T17:52:38.358Z,50.87
2023-05-17T17:55:07.618Z,50.14
2023-05-17T17:57:35.936Z,51.46
2023-05-17T18:00:04.264Z,50.46
2023-05-17T18:02:32.240Z,51.79
2023-05-17T18:05:00.334Z,51.98
2023-05-17T18:07:29.708Z,50.11
2023-05-17T18:09:58.524Z,49.72
2023-05-17T18:12:27.189Z,48.68
2023-05-17T18:14:55.204Z,48.70
2023-05-17T18:17:23.298Z,49.88
2023-05-17T18:19:51.428Z,50.58
2023-05-17T18:22:19.409Z,51.59
2023-05-17T18:24:49.428Z,51.23
2023-05-17T18:27:17.560Z,50.09
2023-05-17T18:29:45.476Z,49.83
2023-05-17T18:32:13.432Z,50.86
2023-05-17T18:34:41.414Z,51.03
2023-05-17T18:37:09.389Z,51.15
2023-05-17T18:39:37.349Z,50.17
2023-05-17T18:42:07.063Z,51.23
2023-05-17T18:44:36.112Z,51.54
2023-05-17T18:47:04.240Z,50.90
2023-05-17T18:49:32.242Z,51.20
2023-05-17T18:52:00.179Z,50.91
2023-05-17T18:54:28.149Z,51.17
2023-05-17T18:56:56.068Z,51.89
2023-05-17T18:59:25.430Z,51.34
2023-05-17T19:01:53.399Z,51.88
2023-05-17T19:04:21.450Z,53.01
2023-05-17T19:06:49.411Z,53.17
2023-05-17T19:09:17.365Z,53.18
2023-05-17T19:11:45.331Z,51.44
2023-05-17T19:14:14.717Z,51.07
2023-05-17T19:16:44.201Z,51.86
2023-05-17T19:19:12.282Z,53.07
2023-05-17T19:21:40.232Z,53.32
2023-05-17T19:24:08.444Z,54.13
2023-05-17T19:26:36.409Z,54.91
2023-05-17T19:29:04.365Z,53.59
2023-05-17T19:31:32.358Z,53.32
2023-05-17T19:34:02.470Z,52.83
2023-05-17T19:36:30.983Z,52.34
2023-05-17T19:38:58.983Z,53.31
2023-05-17T19:41:26.986Z,53.66
2023-05-17T19:43:54.905Z,53.89
2023-05-17T19:46:22.936Z,53.64
2023-05-17T19:48:51.009Z,53.21
2023-05-17T19:51:20.328Z,54.09
2023-05-17T19:53:53.364Z,54.40
2023-05-17T19:56:22.764Z,53.30
2023-05-17T19:58:50.774Z,53.34
2023-05-17T20:01:18.944Z,53.45
2023-05-17T20:03:47.033Z,55.14
2023-05-17T20:06:15.268Z,55.01
2023-05-17T20:08:44.706Z,54.47
2023-05-17T20:11:12.645Z,53.95
2023-05-17T20:13:40.786Z,53.65
2023-05-17T20:16:12.989Z,53.18
2023-05-17T20:18:43.032Z,53.10
2023-05-17T20:21:11.423Z,52.25
2023-05-17T20:23:39.972Z,52.45
2023-05-17T20:26:16.052Z,52.80
2023-05-17T20:28:44.150Z,52.74
2023-05-17T20:31:12.219Z,52.66
2023-05-17T20:33:40.167Z,53.06
2023-05-17T20:36:10.029Z,53.04
2023-05-17T20:38:37.955Z,52.57
2023-05-17T20:41:06.598Z,53.03
2023-05-17T20:43:36.812Z,52.73
2023-05-17T20:46:07.117Z,53.17
2023-05-17T20:48:35.546Z,53.19
2023-05-17T20:51:04.099Z,53.28
2023-05-17T20:53:32.172Z,53.57
2023-05-17T20:56:00.168Z,52.67
2023-05-17T20:58:29.094Z,53.10
2023-05-17T21:00:59.994Z,53.72
2023-05-17T21:03:28.766Z,54.30
2023-05-17T21:05:56.872Z,53.66
2023-05-17T21:08:24.971Z,53.73
2023-05-17T21:10:52.894Z,53.47
2023-05-17T21:13:21.742Z,53.42
2023-05-17T21:15:49.788Z,53.26
2023-05-17T21:18:19.284Z,54.34
2023-05-17T21:20:47.325Z,54.34
2023-05-17T21:23:15.471Z,53.73
2023-05-17T21:25:44.376Z,53.66
2023-05-17T21:28:12.669Z,53.77
2023-05-17T21:30:40.595Z,53.81
2023-05-17T21:33:08.733Z,53.42
2023-05-17T21:35:38.083Z,53.24
2023-05-17T21:38:06.142Z,54.02
2023-05-17T21:40:34.115Z,53.82
2023-05-17T21:43:02.044Z,53.20
2023-05-17T21:45:30.005Z,54.16
2023-05-17T21:47:58.071Z,53.91
2023-05-17T21:50:26.273Z,54.00
2023-05-17T21:52:55.600Z,53.13
2023-05-17T21:55:23.861Z,53.12
2023-05-17T21:57:51.816Z,53.59
2023-05-17T22:00:20.551Z,53.41
2023-05-17T22:02:48.814Z,53.17
2023-05-17T22:05:17.111Z,53.83
2023-05-17T22:07:45.086Z,53.45
2023-05-17T22:10:14.447Z,54.03
2023-05-17T22:12:42.453Z,53.66
2023-05-17T22:15:11.020Z,53.37
2023-05-17T22:17:50.970Z,53.82
2023-05-17T22:20:23.704Z,54.84
2023-05-17T22:22:51.946Z,54.28
2023-05-17T22:25:21.412Z,54.06
2023-05-17T22:27:49.369Z,53.93
2023-05-17T22:30:17.478Z,54.62
2023-05-17T22:32:45.487Z,55.36
2023-05-17T22:35:13.567Z,54.76
2023-05-17T22:37:42.829Z,54.52
2023-05-17T22:40:11.942Z,54.94
2023-05-17T22:42:43.193Z,55.92
2023-05-17T22:45:12.643Z,55.78
2023-05-17T22:47:42.439Z,55.17
2023-05-17T22:50:12.192Z,55.12
2023-05-17T22:52:42.775Z,55.13
2023-05-17T22:55:11.319Z,54.87
2023-05-17T22:57:39.439Z,54.54
2023-05-17T23:00:11.376Z,56.14
2023-05-17T23:02:39.640Z,56.64
2023-05-17T23:05:08.052Z,56.90
2023-05-17T23:07:38.474Z,56.43
2023-05-17T23:10:08.308Z,56.95
2023-05-17T23:12:36.948Z,59.05
2023-05-17T23:15:06.166Z,57.29
2023-05-17T23:17:36.435Z,56.06
2023-05-17T23:20:08.641Z,57.04
2023-05-17T23:22:36.862Z,56.80
2023-05-17T23:25:06.081Z,58.82
2023-05-17T23:27:35.347Z,57.59
2023-05-17T23:30:04.678Z,55.96
2023-05-17T23:32:34.010Z,55.32
2023-05-17T23:35:04.977Z,58.57
2023-05-17T23:37:33.196Z,57.53
2023-05-17T23:40:01.521Z,56.87
2023-05-17T23:42:29.744Z,56.89
2023-05-17T23:44:57.752Z,57.94
2023-05-17T23:47:25.902Z,56.98
2023-05-17T23:49:53.864Z,59.19
2023-05-17T23:52:23.802Z,57.50
2023-05-17T23:54:52.032Z,57.19
2023-05-17T23:57:19.972Z,59.72
2023-05-17T23:59:47.912Z,60.91
